sensor_id;sensor_type;location;lat;lon;timestamp;P1;durP1;ratioP1;P2;durP2;ratioP2
42006;SDS011;27696;42.704;23.304;2023-11-18T00:01:58;0.73;;;0.50;;
42006;SDS011;27696;42.704;23.304;2023-11-18T00:04:24;0.98;;;0.60;;
42006;SDS011;27696;42.704;23.304;2023-11-18T00:06:50;0.57;;;0.57;;
42006;SDS011;27696;42.704;23.304;2023-11-18T00:09:16;0.45;;;0.43;;
42006;SDS011;27696;42.704;23.304;2023-11-18T00:11:42;0.63;;;0.63;;
42006;SDS011;27696;42.704;23.304;2023-11-18T00:14:07;0.93;;;0.63;;
42006;SDS011;27696;42.704;23.304;2023-11-18T00:16:33;0.50;;;0.50;;
42006;SDS011;27696;42.704;23.304;2023-11-18T00:18:59;0.70;;;0.60;;
42006;SDS011;27696;42.704;23.304;2023-11-18T00:21:26;0.65;;;0.65;;
42006;SDS011;27696;42.704;23.304;2023-11-18T00:23:52;0.80;;;0.80;;
42006;SDS011;27696;42.704;23.304;2023-11-18T00:26:18;0.85;;;0.60;;
42006;SDS011;27696;42.704;23.304;2023-11-18T00:28:44;0.82;;;0.65;;
42006;SDS011;27696;42.704;23.304;2023-11-18T00:31:09;0.63;;;0.63;;
42006;SDS011;27696;42.704;23.304;2023-11-18T00:33:34;0.55;;;0.55;;
42006;SDS011;27696;42.704;23.304;2023-11-18T00:36:00;1.13;;;0.60;;
42006;SDS011;27696;42.704;23.304;2023-11-18T00:38:26;1.08;;;0.60;;
42006;SDS011;27696;42.704;23.304;2023-11-18T00:40:51;1.05;;;0.60;;
42006;SDS011;27696;42.704;23.304;2023-11-18T00:43:17;1.20;;;0.68;;
42006;SDS011;27696;42.704;23.304;2023-11-18T00:45:42;0.70;;;0.70;;
42006;SDS011;27696;42.704;23.304;2023-11-18T00:48:08;1.10;;;0.93;;
42006;SDS011;27696;42.704;23.304;2023-11-18T00:50:34;1.00;;;0.90;;
42006;SDS011;27696;42.704;23.304;2023-11-18T00:53:00;1.08;;;0.88;;
42006;SDS011;27696;42.704;23.304;2023-11-18T00:55:25;1.30;;;0.88;;
42006;SDS011;27696;42.704;23.304;2023-11-18T00:57:51;0.88;;;0.88;;
42006;SDS011;27696;42.704;23.304;2023-11-18T01:00:16;0.88;;;0.88;;
42006;SDS011;27696;42.704;23.304;2023-11-18T01:02:46;0.90;;;0.80;;
42006;SDS011;27696;42.704;23.304;2023-11-18T01:05:13;0.82;;;0.80;;
42006;SDS011;27696;42.704;23.304;2023-11-18T01:07:40;0.82;;;0.80;;
42006;SDS011;27696;42.704;23.304;2023-11-18T01:10:06;0.93;;;0.80;;
42006;SDS011;27696;42.704;23.304;2023-11-18T01:12:32;1.10;;;1.00;;
42006;SDS011;27696;42.704;23.304;2023-11-18T01:14:58;0.88;;;0.80;;
42006;SDS011;27696;42.704;23.304;2023-11-18T01:17:24;1.25;;;0.88;;
42006;SDS011;27696;42.704;23.304;2023-11-18T01:19:49;1.02;;;0.93;;
42006;SDS011;27696;42.704;23.304;2023-11-18T01:22:15;0.90;;;0.90;;
42006;SDS011;27696;42.704;23.304;2023-11-18T01:24:40;1.30;;;1.20;;
42006;SDS011;27696;42.704;23.304;2023-11-18T01:27:06;1.27;;;1.17;;
42006;SDS011;27696;42.704;23.304;2023-11-18T01:29:34;1.25;;;1.15;;
42006;SDS011;27696;42.704;23.304;2023-11-18T01:32:04;1.30;;;1.20;;
42006;SDS011;27696;42.704;23.304;2023-11-18T01:34:36;1.33;;;1.23;;
42006;SDS011;27696;42.704;23.304;2023-11-18T01:37:05;1.95;;;1.52;;
42006;SDS011;27696;42.704;23.304;2023-11-18T01:39:32;1.80;;;1.70;;
42006;SDS011;27696;42.704;23.304;2023-11-18T01:41:58;1.85;;;1.42;;
42006;SDS011;27696;42.704;23.304;2023-11-18T01:44:24;1.88;;;1.25;;
42006;SDS011;27696;42.704;23.304;2023-11-18T01:46:50;1.50;;;1.40;;
42006;SDS011;27696;42.704;23.304;2023-11-18T01:49:15;2.72;;;1.15;;
42006;SDS011;27696;42.704;23.304;2023-11-18T01:51:43;2.65;;;1.23;;
42006;SDS011;27696;42.704;23.304;2023-11-18T01:54:10;1.90;;;1.30;;
42006;SDS011;27696;42.704;23.304;2023-11-18T01:56:43;1.20;;;1.10;;
42006;SDS011;27696;42.704;23.304;2023-11-18T01:59:10;2.80;;;1.40;;
42006;SDS011;27696;42.704;23.304;2023-11-18T02:01:40;1.30;;;1.20;;
42006;SDS011;27696;42.704;23.304;2023-11-18T02:04:08;1.30;;;1.20;;
42006;SDS011;27696;42.704;23.304;2023-11-18T02:06:34;1.63;;;1.33;;
42006;SDS011;27696;42.704;23.304;2023-11-18T02:09:01;1.40;;;1.10;;
42006;SDS011;27696;42.704;23.304;2023-11-18T02:11:30;1.13;;;1.02;;
42006;SDS011;27696;42.704;23.304;2023-11-18T02:13:58;1.83;;;1.38;;
42006;SDS011;27696;42.704;23.304;2023-11-18T02:16:28;3.33;;;1.40;;
42006;SDS011;27696;42.704;23.304;2023-11-18T02:18:54;1.63;;;1.52;;
42006;SDS011;27696;42.704;23.304;2023-11-18T02:21:20;1.58;;;1.48;;
42006;SDS011;27696;42.704;23.304;2023-11-18T02:23:47;1.77;;;1.67;;
42006;SDS011;27696;42.704;23.304;2023-11-18T02:26:20;1.65;;;1.55;;
42006;SDS011;27696;42.704;23.304;2023-11-18T02:28:46;1.70;;;1.60;;
42006;SDS011;27696;42.704;23.304;2023-11-18T02:31:14;1.70;;;1.60;;
42006;SDS011;27696;42.704;23.304;2023-11-18T02:33:50;1.73;;;1.63;;
42006;SDS011;27696;42.704;23.304;2023-11-18T02:36:26;1.92;;;1.83;;
42006;SDS011;27696;42.704;23.304;2023-11-18T02:39:01;2.00;;;1.80;;
42006;SDS011;27696;42.704;23.304;2023-11-18T02:41:32;1.70;;;1.60;;
42006;SDS011;27696;42.704;23.304;2023-11-18T02:43:59;2.00;;;1.80;;
42006;SDS011;27696;42.704;23.304;2023-11-18T02:46:25;2.08;;;1.85;;
42006;SDS011;27696;42.704;23.304;2023-11-18T02:48:53;2.50;;;2.30;;
42006;SDS011;27696;42.704;23.304;2023-11-18T02:51:20;2.90;;;2.10;;
42006;SDS011;27696;42.704;23.304;2023-11-18T02:53:45;2.60;;;2.40;;
42006;SDS011;27696;42.704;23.304;2023-11-18T02:56:11;2.35;;;2.10;;
42006;SDS011;27696;42.704;23.304;2023-11-18T02:58:36;2.47;;;2.28;;
42006;SDS011;27696;42.704;23.304;2023-11-18T03:01:02;2.28;;;2.08;;
42006;SDS011;27696;42.704;23.304;2023-11-18T03:03:29;2.40;;;2.17;;
42006;SDS011;27696;42.704;23.304;2023-11-18T03:05:55;3.30;;;2.63;;
42006;SDS011;27696;42.704;23.304;2023-11-18T03:08:20;2.80;;;2.58;;
42006;SDS011;27696;42.704;23.304;2023-11-18T03:10:46;2.72;;;2.53;;
42006;SDS011;27696;42.704;23.304;2023-11-18T03:13:11;3.15;;;2.63;;
42006;SDS011;27696;42.704;23.304;2023-11-18T03:15:37;3.40;;;2.83;;
42006;SDS011;27696;42.704;23.304;2023-11-18T03:18:03;5.35;;;2.53;;
42006;SDS011;27696;42.704;23.304;2023-11-18T03:20:30;3.30;;;2.65;;
42006;SDS011;27696;42.704;23.304;2023-11-18T03:22:58;2.80;;;2.50;;
42006;SDS011;27696;42.704;23.304;2023-11-18T03:25:25;2.20;;;2.00;;
42006;SDS011;27696;42.704;23.304;2023-11-18T03:27:50;2.80;;;2.20;;
42006;SDS011;27696;42.704;23.304;2023-11-18T03:30:15;4.53;;;2.17;;
42006;SDS011;27696;42.704;23.304;2023-11-18T03:32:42;5.30;;;2.30;;
42006;SDS011;27696;42.704;23.304;2023-11-18T03:35:07;2.30;;;2.10;;
42006;SDS011;27696;42.704;23.304;2023-11-18T03:37:40;1.60;;;1.50;;
42006;SDS011;27696;42.704;23.304;2023-11-18T03:40:10;3.13;;;2.63;;
42006;SDS011;27696;42.704;23.304;2023-11-18T03:42:37;2.78;;;2.58;;
42006;SDS011;27696;42.704;23.304;2023-11-18T03:45:03;4.20;;;2.67;;
42006;SDS011;27696;42.704;23.304;2023-11-18T03:47:29;3.03;;;2.72;;
42006;SDS011;27696;42.704;23.304;2023-11-18T03:49:56;3.10;;;2.70;;
42006;SDS011;27696;42.704;23.304;2023-11-18T03:52:21;2.42;;;2.22;;
42006;SDS011;27696;42.704;23.304;2023-11-18T03:54:47;2.60;;;2.40;;
42006;SDS011;27696;42.704;23.304;2023-11-18T03:57:12;2.92;;;2.70;;
42006;SDS011;27696;42.704;23.304;2023-11-18T03:59:40;3.60;;;2.60;;
42006;SDS011;27696;42.704;23.304;2023-11-18T04:02:06;2.97;;;2.63;;
42006;SDS011;27696;42.704;23.304;2023-11-18T04:04:32;2.90;;;2.70;;
42006;SDS011;27696;42.704;23.304;2023-11-18T04:06:58;3.35;;;2.78;;
42006;SDS011;27696;42.704;23.304;2023-11-18T04:09:26;3.38;;;3.00;;
42006;SDS011;27696;42.704;23.304;2023-11-18T04:11:51;3.13;;;2.83;;
42006;SDS011;27696;42.704;23.304;2023-11-18T04:14:17;3.13;;;2.83;;
42006;SDS011;27696;42.704;23.304;2023-11-18T04:16:44;3.00;;;2.80;;
42006;SDS011;27696;42.704;23.304;2023-11-18T04:19:10;3.40;;;3.10;;
42006;SDS011;27696;42.704;23.304;2023-11-18T04:21:36;3.60;;;3.30;;
42006;SDS011;27696;42.704;23.304;2023-11-18T04:24:01;2.75;;;2.53;;
42006;SDS011;27696;42.704;23.304;2023-11-18T04:26:27;2.42;;;2.22;;
42006;SDS011;27696;42.704;23.304;2023-11-18T04:28:52;3.00;;;2.75;;
42006;SDS011;27696;42.704;23.304;2023-11-18T04:31:17;3.35;;;3.05;;
42006;SDS011;27696;42.704;23.304;2023-11-18T04:33:43;3.25;;;2.25;;
42006;SDS011;27696;42.704;23.304;2023-11-18T04:36:09;2.55;;;2.35;;
42006;SDS011;27696;42.704;23.304;2023-11-18T04:38:35;3.42;;;2.72;;
42006;SDS011;27696;42.704;23.304;2023-11-18T04:41:01;2.70;;;2.50;;
42006;SDS011;27696;42.704;23.304;2023-11-18T04:43:28;2.58;;;2.33;;
42006;SDS011;27696;42.704;23.304;2023-11-18T04:45:55;3.83;;;2.38;;
42006;SDS011;27696;42.704;23.304;2023-11-18T04:48:20;2.83;;;2.58;;
42006;SDS011;27696;42.704;23.304;2023-11-18T04:50:46;2.97;;;2.67;;
42006;SDS011;27696;42.704;23.304;2023-11-18T04:53:12;2.97;;;2.50;;
42006;SDS011;27696;42.704;23.304;2023-11-18T04:55:37;3.70;;;2.58;;
42006;SDS011;27696;42.704;23.304;2023-11-18T04:58:03;3.00;;;2.70;;
42006;SDS011;27696;42.704;23.304;2023-11-18T05:00:33;2.60;;;2.40;;
42006;SDS011;27696;42.704;23.304;2023-11-18T05:02:59;2.85;;;2.55;;
42006;SDS011;27696;42.704;23.304;2023-11-18T05:05:24;2.95;;;2.30;;
42006;SDS011;27696;42.704;23.304;2023-11-18T05:07:50;2.28;;;2.08;;
42006;SDS011;27696;42.704;23.304;2023-11-18T05:10:15;2.53;;;2.15;;
42006;SDS011;27696;42.704;23.304;2023-11-18T05:12:41;2.33;;;2.10;;
42006;SDS011;27696;42.704;23.304;2023-11-18T05:15:08;3.15;;;2.13;;
42006;SDS011;27696;42.704;23.304;2023-11-18T05:17:35;1.80;;;1.70;;
42006;SDS011;27696;42.704;23.304;2023-11-18T05:20:01;2.38;;;2.17;;
42006;SDS011;27696;42.704;23.304;2023-11-18T05:22:27;2.33;;;1.90;;
42006;SDS011;27696;42.704;23.304;2023-11-18T05:24:53;2.22;;;2.03;;
42006;SDS011;27696;42.704;23.304;2023-11-18T05:27:18;2.00;;;1.90;;
42006;SDS011;27696;42.704;23.304;2023-11-18T05:29:44;1.83;;;1.70;;
42006;SDS011;27696;42.704;23.304;2023-11-18T05:32:13;1.77;;;1.67;;
42006;SDS011;27696;42.704;23.304;2023-11-18T05:34:38;1.70;;;1.50;;
42006;SDS011;27696;42.704;23.304;2023-11-18T05:37:04;1.45;;;1.35;;
42006;SDS011;27696;42.704;23.304;2023-11-18T05:39:29;1.77;;;1.58;;
42006;SDS011;27696;42.704;23.304;2023-11-18T05:41:59;1.92;;;1.60;;
42006;SDS011;27696;42.704;23.304;2023-11-18T05:44:24;1.92;;;1.80;;
42006;SDS011;27696;42.704;23.304;2023-11-18T05:46:59;2.33;;;1.90;;
42006;SDS011;27696;42.704;23.304;2023-11-18T05:49:24;1.95;;;1.60;;
42006;SDS011;27696;42.704;23.304;2023-11-18T05:51:50;1.52;;;1.42;;
42006;SDS011;27696;42.704;23.304;2023-11-18T05:54:17;1.63;;;1.35;;
42006;SDS011;27696;42.704;23.304;2023-11-18T05:56:42;1.42;;;1.20;;
42006;SDS011;27696;42.704;23.304;2023-11-18T05:59:08;1.20;;;1.10;;
42006;SDS011;27696;42.704;23.304;2023-11-18T06:01:33;2.17;;;1.50;;
42006;SDS011;27696;42.704;23.304;2023-11-18T06:03:59;3.33;;;1.33;;
42006;SDS011;27696;42.704;23.304;2023-11-18T06:06:26;1.92;;;1.20;;
42006;SDS011;27696;42.704;23.304;2023-11-18T06:08:51;1.35;;;1.23;;
42006;SDS011;27696;42.704;23.304;2023-11-18T06:11:18;3.22;;;1.13;;
42006;SDS011;27696;42.704;23.304;2023-11-18T06:13:48;2.60;;;1.13;;
42006;SDS011;27696;42.704;23.304;2023-11-18T06:16:18;1.25;;;1.02;;
42006;SDS011;27696;42.704;23.304;2023-11-18T06:18:48;1.73;;;1.13;;
42006;SDS011;27696;42.704;23.304;2023-11-18T06:21:15;1.23;;;1.02;;
42006;SDS011;27696;42.704;23.304;2023-11-18T06:23:42;1.45;;;1.10;;
42006;SDS011;27696;42.704;23.304;2023-11-18T06:26:08;1.30;;;1.20;;
42006;SDS011;27696;42.704;23.304;2023-11-18T06:28:39;1.20;;;1.10;;
42006;SDS011;27696;42.704;23.304;2023-11-18T06:31:06;1.15;;;1.05;;
42006;SDS011;27696;42.704;23.304;2023-11-18T06:33:40;4.32;;;0.95;;
42006;SDS011;27696;42.704;23.304;2023-11-18T06:38:39;1.58;;;1.00;;
42006;SDS011;27696;42.704;23.304;2023-11-18T06:41:06;2.15;;;0.82;;
42006;SDS011;27696;42.704;23.304;2023-11-18T06:43:35;1.65;;;0.93;;
42006;SDS011;27696;42.704;23.304;2023-11-18T06:46:16;1.10;;;0.90;;
42006;SDS011;27696;42.704;23.304;2023-11-18T06:48:51;0.93;;;0.80;;
42006;SDS011;27696;42.704;23.304;2023-11-18T06:51:19;0.88;;;0.80;;
42006;SDS011;27696;42.704;23.304;2023-11-18T06:53:48;0.88;;;0.88;;
42006;SDS011;27696;42.704;23.304;2023-11-18T06:56:14;0.93;;;0.82;;
42006;SDS011;27696;42.704;23.304;2023-11-18T06:58:41;0.85;;;0.70;;
42006;SDS011;27696;42.704;23.304;2023-11-18T07:01:08;1.00;;;0.80;;
42006;SDS011;27696;42.704;23.304;2023-11-18T07:03:34;0.63;;;0.63;;
42006;SDS011;27696;42.704;23.304;2023-11-18T07:06:01;1.23;;;0.85;;
42006;SDS011;27696;42.704;23.304;2023-11-18T07:08:27;1.10;;;1.00;;
42006;SDS011;27696;42.704;23.304;2023-11-18T07:10:53;1.20;;;0.80;;
42006;SDS011;27696;42.704;23.304;2023-11-18T07:13:18;1.70;;;1.17;;
42006;SDS011;27696;42.704;23.304;2023-11-18T07:19:05;0.80;;;0.70;;
42006;SDS011;27696;42.704;23.304;2023-11-18T07:21:31;0.77;;;0.70;;
42006;SDS011;27696;42.704;23.304;2023-11-18T07:23:58;1.67;;;0.80;;
42006;SDS011;27696;42.704;23.304;2023-11-18T07:26:25;0.60;;;0.60;;
42006;SDS011;27696;42.704;23.304;2023-11-18T07:28:51;0.98;;;0.85;;
42006;SDS011;27696;42.704;23.304;2023-11-18T07:31:17;1.83;;;1.00;;
42006;SDS011;27696;42.704;23.304;2023-11-18T07:33:44;0.93;;;0.77;;
42006;SDS011;27696;42.704;23.304;2023-11-18T07:36:14;0.98;;;0.60;;
42006;SDS011;27696;42.704;23.304;2023-11-18T07:38:40;0.63;;;0.60;;
42006;SDS011;27696;42.704;23.304;2023-11-18T07:41:06;0.65;;;0.52;;
42006;SDS011;27696;42.704;23.304;2023-11-18T07:43:33;1.00;;;0.80;;
42006;SDS011;27696;42.704;23.304;2023-11-18T07:46:01;0.77;;;0.77;;
42006;SDS011;27696;42.704;23.304;2023-11-18T07:48:27;0.88;;;0.70;;
42006;SDS011;27696;42.704;23.304;2023-11-18T07:50:53;1.13;;;0.88;;
42006;SDS011;27696;42.704;23.304;2023-11-18T07:53:20;0.80;;;0.77;;
42006;SDS011;27696;42.704;23.304;2023-11-18T07:55:45;0.88;;;0.80;;
42006;SDS011;27696;42.704;23.304;2023-11-18T07:58:12;2.45;;;0.80;;
42006;SDS011;27696;42.704;23.304;2023-11-18T08:00:38;1.83;;;0.80;;
42006;SDS011;27696;42.704;23.304;2023-11-18T08:03:05;3.33;;;1.00;;
42006;SDS011;27696;42.704;23.304;2023-11-18T08:05:36;0.90;;;0.60;;
42006;SDS011;27696;42.704;23.304;2023-11-18T08:08:06;1.63;;;1.00;;
42006;SDS011;27696;42.704;23.304;2023-11-18T08:10:32;1.25;;;0.65;;
42006;SDS011;27696;42.704;23.304;2023-11-18T08:13:02;1.08;;;1.00;;
42006;SDS011;27696;42.704;23.304;2023-11-18T08:15:32;1.00;;;0.80;;
42006;SDS011;27696;42.704;23.304;2023-11-18T08:18:07;1.02;;;0.93;;
42006;SDS011;27696;42.704;23.304;2023-11-18T08:20:35;1.20;;;0.93;;
42006;SDS011;27696;42.704;23.304;2023-11-18T08:23:01;2.65;;;0.95;;
42006;SDS011;27696;42.704;23.304;2023-11-18T08:25:26;1.60;;;1.10;;
42006;SDS011;27696;42.704;23.304;2023-11-18T08:27:52;1.02;;;0.93;;
42006;SDS011;27696;42.704;23.304;2023-11-18T08:30:17;1.35;;;0.90;;
42006;SDS011;27696;42.704;23.304;2023-11-18T08:32:44;1.33;;;0.98;;
42006;SDS011;27696;42.704;23.304;2023-11-18T08:35:13;1.95;;;0.85;;
42006;SDS011;27696;42.704;23.304;2023-11-18T08:37:40;1.73;;;1.15;;
42006;SDS011;27696;42.704;23.304;2023-11-18T08:40:07;1.88;;;1.10;;
42006;SDS011;27696;42.704;23.304;2023-11-18T08:42:50;1.85;;;1.30;;
42006;SDS011;27696;42.704;23.304;2023-11-18T08:45:17;1.10;;;0.98;;
42006;SDS011;27696;42.704;23.304;2023-11-18T08:47:44;8.15;;;1.77;;
42006;SDS011;27696;42.704;23.304;2023-11-18T08:50:10;1.30;;;1.13;;
42006;SDS011;27696;42.704;23.304;2023-11-18T08:52:37;1.95;;;1.25;;
42006;SDS011;27696;42.704;23.304;2023-11-18T08:55:08;1.30;;;0.98;;
42006;SDS011;27696;42.704;23.304;2023-11-18T08:57:42;2.38;;;1.48;;
42006;SDS011;27696;42.704;23.304;2023-11-18T09:00:23;1.73;;;1.40;;
42006;SDS011;27696;42.704;23.304;2023-11-18T09:03:24;2.05;;;1.15;;
42006;SDS011;27696;42.704;23.304;2023-11-18T09:08:23;1.65;;;1.55;;
42006;SDS011;27696;42.704;23.304;2023-11-18T09:10:49;1.80;;;1.42;;
42006;SDS011;27696;42.704;23.304;2023-11-18T09:13:18;4.75;;;1.58;;
42006;SDS011;27696;42.704;23.304;2023-11-18T09:15:48;4.30;;;1.67;;
42006;SDS011;27696;42.704;23.304;2023-11-18T09:18:14;1.52;;;0.95;;
42006;SDS011;27696;42.704;23.304;2023-11-18T09:20:43;1.50;;;0.93;;
42006;SDS011;27696;42.704;23.304;2023-11-18T09:23:08;6.30;;;1.00;;
42006;SDS011;27696;42.704;23.304;2023-11-18T09:25:34;1.10;;;1.00;;
42006;SDS011;27696;42.704;23.304;2023-11-18T09:28:01;1.23;;;1.13;;
42006;SDS011;27696;42.704;23.304;2023-11-18T09:30:28;1.00;;;0.90;;
42006;SDS011;27696;42.704;23.304;2023-11-18T09:32:54;0.80;;;0.80;;
42006;SDS011;27696;42.704;23.304;2023-11-18T09:35:20;1.20;;;0.70;;
42006;SDS011;27696;42.704;23.304;2023-11-18T09:37:46;2.90;;;1.00;;
42006;SDS011;27696;42.704;23.304;2023-11-18T09:40:13;2.75;;;1.02;;
42006;SDS011;27696;42.704;23.304;2023-11-18T09:42:39;1.77;;;1.45;;
42006;SDS011;27696;42.704;23.304;2023-11-18T09:45:07;1.20;;;1.08;;
42006;SDS011;27696;42.704;23.304;2023-11-18T09:47:38;2.58;;;1.05;;
42006;SDS011;27696;42.704;23.304;2023-11-18T09:50:08;1.50;;;0.80;;
42006;SDS011;27696;42.704;23.304;2023-11-18T09:52:37;1.20;;;0.90;;
42006;SDS011;27696;42.704;23.304;2023-11-18T09:55:09;2.47;;;1.15;;
42006;SDS011;27696;42.704;23.304;2023-11-18T09:57:46;1.30;;;1.17;;
42006;SDS011;27696;42.704;23.304;2023-11-18T10:00:22;1.75;;;1.48;;
42006;SDS011;27696;42.704;23.304;2023-11-18T10:02:57;1.40;;;1.08;;
42006;SDS011;27696;42.704;23.304;2023-11-18T10:05:26;1.27;;;1.17;;
42006;SDS011;27696;42.704;23.304;2023-11-18T10:07:52;1.77;;;1.35;;
42006;SDS011;27696;42.704;23.304;2023-11-18T10:10:18;2.22;;;1.30;;
42006;SDS011;27696;42.704;23.304;2023-11-18T10:12:49;1.83;;;1.10;;
42006;SDS011;27696;42.704;23.304;2023-11-18T10:15:22;1.63;;;1.10;;
42006;SDS011;27696;42.704;23.304;2023-11-18T10:17:48;1.02;;;0.90;;
42006;SDS011;27696;42.704;23.304;2023-11-18T10:20:44;0.95;;;0.70;;
42006;SDS011;27696;42.704;23.304;2023-11-18T10:23:11;2.40;;;1.45;;
42006;SDS011;27696;42.704;23.304;2023-11-18T10:25:51;2.28;;;0.88;;
42006;SDS011;27696;42.704;23.304;2023-11-18T10:28:23;3.95;;;1.30;;
42006;SDS011;27696;42.704;23.304;2023-11-18T10:30:52;1.25;;;1.10;;
42006;SDS011;27696;42.704;23.304;2023-11-18T10:33:18;0.98;;;0.85;;
42006;SDS011;27696;42.704;23.304;2023-11-18T10:35:50;1.55;;;1.02;;
42006;SDS011;27696;42.704;23.304;2023-11-18T10:38:16;2.20;;;1.05;;
42006;SDS011;27696;42.704;23.304;2023-11-18T10:40:44;1.38;;;0.85;;
42006;SDS011;27696;42.704;23.304;2023-11-18T10:43:10;1.48;;;1.13;;
42006;SDS011;27696;42.704;23.304;2023-11-18T10:45:37;1.08;;;1.00;;
42006;SDS011;27696;42.704;23.304;2023-11-18T10:48:06;5.63;;;1.42;;
42006;SDS011;27696;42.704;23.304;2023-11-18T10:50:31;1.35;;;1.15;;
42006;SDS011;27696;42.704;23.304;2023-11-18T10:53:00;1.40;;;1.20;;
42006;SDS011;27696;42.704;23.304;2023-11-18T10:55:39;1.20;;;1.10;;
42006;SDS011;27696;42.704;23.304;2023-11-18T10:58:08;0.88;;;0.88;;
42006;SDS011;27696;42.704;23.304;2023-11-18T11:00:47;1.10;;;0.90;;
42006;SDS011;27696;42.704;23.304;2023-11-18T11:03:14;2.97;;;0.95;;
42006;SDS011;27696;42.704;23.304;2023-11-18T11:05:39;1.00;;;0.80;;
42006;SDS011;27696;42.704;23.304;2023-11-18T11:08:07;2.90;;;1.02;;
42006;SDS011;27696;42.704;23.304;2023-11-18T11:10:33;1.98;;;1.08;;
42006;SDS011;27696;42.704;23.304;2023-11-18T11:13:01;2.38;;;1.08;;
42006;SDS011;27696;42.704;23.304;2023-11-18T11:15:30;2.75;;;1.20;;
42006;SDS011;27696;42.704;23.304;2023-11-18T11:17:58;3.20;;;1.13;;
42006;SDS011;27696;42.704;23.304;2023-11-18T11:20:34;2.95;;;1.40;;
42006;SDS011;27696;42.704;23.304;2023-11-18T11:28:21;2.50;;;1.40;;
42006;SDS011;27696;42.704;23.304;2023-11-18T11:30:58;2.33;;;1.75;;
42006;SDS011;27696;42.704;23.304;2023-11-18T11:33:30;2.83;;;1.42;;
42006;SDS011;27696;42.704;23.304;2023-11-18T11:36:05;1.25;;;1.15;;
42006;SDS011;27696;42.704;23.304;2023-11-18T11:38:36;4.80;;;1.20;;
42006;SDS011;27696;42.704;23.304;2023-11-18T11:41:02;1.08;;;0.98;;
42006;SDS011;27696;42.704;23.304;2023-11-18T11:43:30;0.85;;;0.85;;
42006;SDS011;27696;42.704;23.304;2023-11-18T11:45:59;1.38;;;1.27;;
42006;SDS011;27696;42.704;23.304;2023-11-18T11:48:28;1.25;;;1.15;;
42006;SDS011;27696;42.704;23.304;2023-11-18T11:51:16;1.63;;;1.02;;
42006;SDS011;27696;42.704;23.304;2023-11-18T11:54:07;1.77;;;1.20;;
42006;SDS011;27696;42.704;23.304;2023-11-18T11:56:44;2.13;;;1.23;;
42006;SDS011;27696;42.704;23.304;2023-11-18T12:02:15;1.35;;;1.15;;
42006;SDS011;27696;42.704;23.304;2023-11-18T12:04:49;1.48;;;1.10;;
42006;SDS011;27696;42.704;23.304;2023-11-18T12:07:22;1.58;;;1.27;;
42006;SDS011;27696;42.704;23.304;2023-11-18T12:09:55;1.80;;;1.20;;
42006;SDS011;27696;42.704;23.304;2023-11-18T12:12:22;1.33;;;0.90;;
42006;SDS011;27696;42.704;23.304;2023-11-18T12:14:55;3.33;;;1.10;;
42006;SDS011;27696;42.704;23.304;2023-11-18T12:17:22;2.15;;;1.15;;
42006;SDS011;27696;42.704;23.304;2023-11-18T12:19:49;1.20;;;0.98;;
42006;SDS011;27696;42.704;23.304;2023-11-18T12:22:16;5.07;;;1.85;;
42006;SDS011;27696;42.704;23.304;2023-11-18T12:25:28;1.13;;;1.00;;
42006;SDS011;27696;42.704;23.304;2023-11-18T12:27:50;1.67;;;1.20;;
42006;SDS011;27696;42.704;23.304;2023-11-18T12:42:00;4.22;;;1.50;;
42006;SDS011;27696;42.704;23.304;2023-11-18T12:49:39;2.75;;;1.70;;
42006;SDS011;27696;42.704;23.304;2023-11-18T12:52:08;1.48;;;1.38;;
42006;SDS011;27696;42.704;23.304;2023-11-18T12:54:35;2.20;;;1.35;;
42006;SDS011;27696;42.704;23.304;2023-11-18T12:57:08;2.47;;;1.10;;
42006;SDS011;27696;42.704;23.304;2023-11-18T12:59:40;1.40;;;1.27;;
42006;SDS011;27696;42.704;23.304;2023-11-18T13:02:07;1.60;;;1.50;;
42006;SDS011;27696;42.704;23.304;2023-11-18T13:04:33;2.53;;;1.58;;
42006;SDS011;27696;42.704;23.304;2023-11-18T13:07:05;3.05;;;1.27;;
42006;SDS011;27696;42.704;23.304;2023-11-18T13:09:33;1.60;;;1.50;;
42006;SDS011;27696;42.704;23.304;2023-11-18T13:12:01;2.95;;;1.65;;
42006;SDS011;27696;42.704;23.304;2023-11-18T13:14:31;2.15;;;1.95;;
42006;SDS011;27696;42.704;23.304;2023-11-18T13:17:04;2.15;;;1.70;;
42006;SDS011;27696;42.704;23.304;2023-11-18T13:19:31;2.22;;;1.90;;
42006;SDS011;27696;42.704;23.304;2023-11-18T13:22:03;3.55;;;3.20;;
42006;SDS011;27696;42.704;23.304;2023-11-18T13:24:38;6.47;;;4.88;;
42006;SDS011;27696;42.704;23.304;2023-11-18T13:27:10;3.20;;;2.00;;
42006;SDS011;27696;42.704;23.304;2023-11-18T13:29:39;2.85;;;2.13;;
42006;SDS011;27696;42.704;23.304;2023-11-18T13:32:10;3.05;;;1.90;;
42006;SDS011;27696;42.704;23.304;2023-11-18T13:34:36;3.88;;;2.53;;
42006;SDS011;27696;42.704;23.304;2023-11-18T13:37:07;2.35;;;2.08;;
42006;SDS011;27696;42.704;23.304;2023-11-18T13:39:37;1.80;;;1.70;;
42006;SDS011;27696;42.704;23.304;2023-11-18T13:44:45;2.50;;;1.83;;
42006;SDS011;27696;42.704;23.304;2023-11-18T13:47:11;2.55;;;2.35;;
42006;SDS011;27696;42.704;23.304;2023-11-18T13:49:37;3.38;;;1.88;;
42006;SDS011;27696;42.704;23.304;2023-11-18T13:52:06;3.13;;;2.28;;
42006;SDS011;27696;42.704;23.304;2023-11-18T13:54:36;2.17;;;1.98;;
42006;SDS011;27696;42.704;23.304;2023-11-18T13:57:02;4.30;;;2.20;;
42006;SDS011;27696;42.704;23.304;2023-11-18T13:59:28;4.40;;;2.30;;
42006;SDS011;27696;42.704;23.304;2023-11-18T14:01:54;2.33;;;2.00;;
42006;SDS011;27696;42.704;23.304;2023-11-18T14:04:39;2.75;;;2.30;;
42006;SDS011;27696;42.704;23.304;2023-11-18T14:07:04;2.30;;;2.00;;
42006;SDS011;27696;42.704;23.304;2023-11-18T14:09:34;3.15;;;2.33;;
42006;SDS011;27696;42.704;23.304;2023-11-18T14:12:09;2.85;;;2.50;;
42006;SDS011;27696;42.704;23.304;2023-11-18T14:14:36;3.42;;;2.50;;
42006;SDS011;27696;42.704;23.304;2023-11-18T14:17:02;3.80;;;2.95;;
42006;SDS011;27696;42.704;23.304;2023-11-18T14:19:31;3.60;;;2.60;;
42006;SDS011;27696;42.704;23.304;2023-11-18T14:21:57;2.35;;;1.95;;
42006;SDS011;27696;42.704;23.304;2023-11-18T14:24:23;2.83;;;2.45;;
42006;SDS011;27696;42.704;23.304;2023-11-18T14:26:52;3.08;;;2.60;;
42006;SDS011;27696;42.704;23.304;2023-11-18T14:29:18;3.88;;;2.80;;
42006;SDS011;27696;42.704;23.304;2023-11-18T14:31:44;2.88;;;2.35;;
42006;SDS011;27696;42.704;23.304;2023-11-18T14:34:10;3.00;;;2.80;;
42006;SDS011;27696;42.704;23.304;2023-11-18T14:36:36;3.75;;;2.33;;
42006;SDS011;27696;42.704;23.304;2023-11-18T14:39:02;4.00;;;2.78;;
42006;SDS011;27696;42.704;23.304;2023-11-18T14:41:28;5.13;;;3.08;;
42006;SDS011;27696;42.704;23.304;2023-11-18T14:43:56;3.20;;;2.60;;
42006;SDS011;27696;42.704;23.304;2023-11-18T14:46:23;2.65;;;2.45;;
42006;SDS011;27696;42.704;23.304;2023-11-18T14:48:49;3.55;;;2.63;;
42006;SDS011;27696;42.704;23.304;2023-11-18T14:51:15;3.30;;;2.05;;
42006;SDS011;27696;42.704;23.304;2023-11-18T14:53:41;2.97;;;2.50;;
42006;SDS011;27696;42.704;23.304;2023-11-18T14:56:08;3.17;;;2.88;;
42006;SDS011;27696;42.704;23.304;2023-11-18T14:58:36;3.10;;;2.53;;
42006;SDS011;27696;42.704;23.304;2023-11-18T15:01:02;3.17;;;2.75;;
42006;SDS011;27696;42.704;23.304;2023-11-18T15:03:27;2.65;;;2.22;;
42006;SDS011;27696;42.704;23.304;2023-11-18T15:05:54;3.83;;;2.45;;
42006;SDS011;27696;42.704;23.304;2023-11-18T15:08:20;3.15;;;2.78;;
42006;SDS011;27696;42.704;23.304;2023-11-18T15:10:45;2.83;;;2.55;;
42006;SDS011;27696;42.704;23.304;2023-11-18T15:13:11;3.28;;;2.65;;
42006;SDS011;27696;42.704;23.304;2023-11-18T15:15:45;2.58;;;2.38;;